sensor_id;sensor_type;location;lat;lon;timestamp;P1;durP1;ratioP1;P2;durP2;ratioP2
19084;SDS011;9675;51.538;6.728;2024-02-21T00:01:31;27.30;;;11.73;;
19084;SDS011;9675;51.538;6.728;2024-02-21T00:03:58;46.13;;;18.50;;
19084;SDS011;9675;51.538;6.728;2024-02-21T00:06:25;29.70;;;12.20;;
19084;SDS011;9675;51.538;6.728;2024-02-21T00:08:52;22.57;;;8.90;;
19084;SDS011;9675;51.538;6.728;2024-02-21T00:11:21;22.77;;;8.03;;
19084;SDS011;9675;51.538;6.728;2024-02-21T00:13:48;21.60;;;7.70;;
19084;SDS011;9675;51.538;6.728;2024-02-21T00:16:15;25.17;;;6.73;;
19084;SDS011;9675;51.538;6.728;2024-02-21T00:18:42;21.20;;;7.40;;
19084;SDS011;9675;51.538;6.728;2024-02-21T00:21:09;25.97;;;8.13;;
19084;SDS011;9675;51.538;6.728;2024-02-21T00:23:42;24.33;;;7.27;;
19084;SDS011;9675;51.538;6.728;2024-02-21T00:26:10;23.60;;;8.67;;
19084;SDS011;9675;51.538;6.728;2024-02-21T00:28:39;20.23;;;6.50;;
19084;SDS011;9675;51.538;6.728;2024-02-21T00:31:06;23.97;;;7.87;;
19084;SDS011;9675;51.538;6.728;2024-02-21T00:33:33;25.20;;;7.83;;
19084;SDS011;9675;51.538;6.728;2024-02-21T00:36:00;32.47;;;9.53;;
19084;SDS011;9675;51.538;6.728;2024-02-21T00:38:27;21.27;;;7.20;;
19084;SDS011;9675;51.538;6.728;2024-02-21T00:40:54;26.43;;;7.87;;
19084;SDS011;9675;51.538;6.728;2024-02-21T00:43:21;21.77;;;8.03;;
19084;SDS011;9675;51.538;6.728;2024-02-21T00:45:50;20.13;;;7.80;;
19084;SDS011;9675;51.538;6.728;2024-02-21T00:48:17;27.43;;;7.80;;
19084;SDS011;9675;51.538;6.728;2024-02-21T00:50:45;20.77;;;7.57;;
19084;SDS011;9675;51.538;6.728;2024-02-21T00:53:12;23.60;;;8.20;;
19084;SDS011;9675;51.538;6.728;2024-02-21T00:55:39;19.17;;;8.10;;
19084;SDS011;9675;51.538;6.728;2024-02-21T00:58:06;22.37;;;7.73;;
19084;SDS011;9675;51.538;6.728;2024-02-21T01:00:33;26.73;;;9.17;;
19084;SDS011;9675;51.538;6.728;2024-02-21T01:03:01;22.83;;;8.37;;
19084;SDS011;9675;51.538;6.728;2024-02-21T01:05:29;18.30;;;8.13;;
19084;SDS011;9675;51.538;6.728;2024-02-21T01:07:56;24.80;;;9.97;;
19084;SDS011;9675;51.538;6.728;2024-02-21T01:10:23;25.30;;;9.30;;
19084;SDS011;9675;51.538;6.728;2024-02-21T01:12:50;29.30;;;9.47;;
19084;SDS011;9675;51.538;6.728;2024-02-21T01:15:17;27.60;;;8.67;;
19084;SDS011;9675;51.538;6.728;2024-02-21T01:17:44;25.10;;;8.23;;
19084;SDS011;9675;51.538;6.728;2024-02-21T01:20:12;16.10;;;5.97;;
19084;SDS011;9675;51.538;6.728;2024-02-21T01:22:40;26.67;;;7.10;;
19084;SDS011;9675;51.538;6.728;2024-02-21T01:25:07;18.73;;;7.30;;
19084;SDS011;9675;51.538;6.728;2024-02-21T01:27:34;13.60;;;6.20;;
19084;SDS011;9675;51.538;6.728;2024-02-21T01:30:02;20.70;;;7.00;;
19084;SDS011;9675;51.538;6.728;2024-02-21T01:32:30;18.53;;;6.27;;
19084;SDS011;9675;51.538;6.728;2024-02-21T01:34:57;19.33;;;7.23;;
19084;SDS011;9675;51.538;6.728;2024-02-21T01:37:26;21.50;;;7.13;;
19084;SDS011;9675;51.538;6.728;2024-02-21T01:39:53;19.37;;;6.83;;
19084;SDS011;9675;51.538;6.728;2024-02-21T01:42:20;20.93;;;7.70;;
19084;SDS011;9675;51.538;6.728;2024-02-21T01:44:47;20.10;;;6.60;;
19084;SDS011;9675;51.538;6.728;2024-02-21T01:47:14;17.23;;;6.07;;
19084;SDS011;9675;51.538;6.728;2024-02-21T01:49:41;22.30;;;8.03;;
19084;SDS011;9675;51.538;6.728;2024-02-21T01:52:09;21.37;;;7.77;;
19084;SDS011;9675;51.538;6.728;2024-02-21T01:54:42;18.87;;;6.83;;
19084;SDS011;9675;51.538;6.728;2024-02-21T01:57:12;20.77;;;6.23;;
19084;SDS011;9675;51.538;6.728;2024-02-21T01:59:40;14.23;;;6.40;;
19084;SDS011;9675;51.538;6.728;2024-02-21T02:02:08;18.97;;;7.27;;
19084;SDS011;9675;51.538;6.728;2024-02-21T02:04:37;17.17;;;5.80;;
19084;SDS011;9675;51.538;6.728;2024-02-21T02:07:05;22.97;;;8.00;;
19084;SDS011;9675;51.538;6.728;2024-02-21T02:09:33;19.37;;;7.23;;
19084;SDS011;9675;51.538;6.728;2024-02-21T02:12:04;18.03;;;6.50;;
19084;SDS011;9675;51.538;6.728;2024-02-21T02:14:32;15.60;;;5.67;;
19084;SDS011;9675;51.538;6.728;2024-02-21T02:16:59;28.07;;;9.23;;
19084;SDS011;9675;51.538;6.728;2024-02-21T02:19:26;22.17;;;6.83;;
19084;SDS011;9675;51.538;6.728;2024-02-21T02:21:54;21.53;;;7.43;;
19084;SDS011;9675;51.538;6.728;2024-02-21T02:24:36;23.00;;;7.93;;
19084;SDS011;9675;51.538;6.728;2024-02-21T02:27:03;21.57;;;6.50;;
19084;SDS011;9675;51.538;6.728;2024-02-21T02:29:31;20.23;;;6.67;;
19084;SDS011;9675;51.538;6.728;2024-02-21T02:31:58;17.03;;;6.37;;
19084;SDS011;9675;51.538;6.728;2024-02-21T02:34:26;17.70;;;6.90;;
19084;SDS011;9675;51.538;6.728;2024-02-21T02:36:53;19.33;;;6.53;;
19084;SDS011;9675;51.538;6.728;2024-02-21T02:39:20;18.30;;;6.23;;
19084;SDS011;9675;51.538;6.728;2024-02-21T02:41:48;19.83;;;6.47;;
19084;SDS011;9675;51.538;6.728;2024-02-21T02:44:15;13.80;;;5.33;;
19084;SDS011;9675;51.538;6.728;2024-02-21T02:46:42;15.17;;;4.97;;
19084;SDS011;9675;51.538;6.728;2024-02-21T02:49:10;9.43;;;3.63;;
19084;SDS011;9675;51.538;6.728;2024-02-21T02:51:37;20.93;;;6.27;;
19084;SDS011;9675;51.538;6.728;2024-02-21T02:54:08;13.90;;;5.30;;
19084;SDS011;9675;51.538;6.728;2024-02-21T02:56:35;16.87;;;5.67;;
19084;SDS011;9675;51.538;6.728;2024-02-21T02:59:04;17.13;;;5.37;;
19084;SDS011;9675;51.538;6.728;2024-02-21T03:01:33;16.93;;;5.80;;
19084;SDS011;9675;51.538;6.728;2024-02-21T03:04:00;15.13;;;5.90;;
19084;SDS011;9675;51.538;6.728;2024-02-21T03:06:28;17.37;;;5.97;;
19084;SDS011;9675;51.538;6.728;2024-02-21T03:08:55;13.63;;;5.83;;
19084;SDS011;9675;51.538;6.728;2024-02-21T03:11:22;20.20;;;6.37;;
19084;SDS011;9675;51.538;6.728;2024-02-21T03:13:54;14.63;;;6.27;;
19084;SDS011;9675;51.538;6.728;2024-02-21T03:16:25;17.70;;;5.77;;
19084;SDS011;9675;51.538;6.728;2024-02-21T03:18:52;17.33;;;6.57;;
19084;SDS011;9675;51.538;6.728;2024-02-21T03:21:19;14.13;;;6.30;;
19084;SDS011;9675;51.538;6.728;2024-02-21T03:23:46;10.00;;;5.03;;
19084;SDS011;9675;51.538;6.728;2024-02-21T03:26:13;17.00;;;5.97;;
19084;SDS011;9675;51.538;6.728;2024-02-21T03:28:42;20.93;;;6.87;;
19084;SDS011;9675;51.538;6.728;2024-02-21T03:31:11;13.20;;;5.47;;
19084;SDS011;9675;51.538;6.728;2024-02-21T03:33:41;14.33;;;5.70;;
19084;SDS011;9675;51.538;6.728;2024-02-21T03:36:12;16.47;;;6.23;;
19084;SDS011;9675;51.538;6.728;2024-02-21T03:38:40;14.97;;;5.77;;
19084;SDS011;9675;51.538;6.728;2024-02-21T03:41:08;12.93;;;5.10;;
19084;SDS011;9675;51.538;6.728;2024-02-21T03:43:35;12.40;;;4.83;;
19084;SDS011;9675;51.538;6.728;2024-02-21T03:46:03;13.10;;;5.70;;
19084;SDS011;9675;51.538;6.728;2024-02-21T03:48:31;11.10;;;5.33;;
19084;SDS011;9675;51.538;6.728;2024-02-21T03:50:59;20.97;;;6.73;;
19084;SDS011;9675;51.538;6.728;2024-02-21T03:53:26;12.93;;;4.17;;
19084;SDS011;9675;51.538;6.728;2024-02-21T03:55:53;13.50;;;5.80;;
19084;SDS011;9675;51.538;6.728;2024-02-21T03:58:20;12.23;;;4.80;;
19084;SDS011;9675;51.538;6.728;2024-02-21T04:00:48;14.10;;;5.33;;
19084;SDS011;9675;51.538;6.728;2024-02-21T04:03:14;16.23;;;4.40;;
19084;SDS011;9675;51.538;6.728;2024-02-21T04:05:41;12.17;;;4.37;;
19084;SDS011;9675;51.538;6.728;2024-02-21T04:08:10;15.00;;;4.10;;
19084;SDS011;9675;51.538;6.728;2024-02-21T04:10:37;18.23;;;5.90;;
19084;SDS011;9675;51.538;6.728;2024-02-21T04:13:05;11.83;;;5.13;;
19084;SDS011;9675;51.538;6.728;2024-02-21T04:15:33;20.47;;;5.17;;
19084;SDS011;9675;51.538;6.728;2024-02-21T04:18:00;13.93;;;5.47;;
19084;SDS011;9675;51.538;6.728;2024-02-21T04:20:28;7.80;;;4.13;;
19084;SDS011;9675;51.538;6.728;2024-02-21T04:22:55;13.00;;;5.07;;
19084;SDS011;9675;51.538;6.728;2024-02-21T04:25:24;10.53;;;4.87;;
19084;SDS011;9675;51.538;6.728;2024-02-21T04:27:51;17.37;;;5.17;;
19084;SDS011;9675;51.538;6.728;2024-02-21T04:30:18;10.80;;;5.33;;
19084;SDS011;9675;51.538;6.728;2024-02-21T04:32:46;14.13;;;4.60;;
19084;SDS011;9675;51.538;6.728;2024-02-21T04:35:13;21.50;;;5.20;;
19084;SDS011;9675;51.538;6.728;2024-02-21T04:37:40;16.60;;;5.10;;
19084;SDS011;9675;51.538;6.728;2024-02-21T04:40:07;13.10;;;4.83;;
19084;SDS011;9675;51.538;6.728;2024-02-21T04:42:36;11.23;;;4.13;;
19084;SDS011;9675;51.538;6.728;2024-02-21T04:45:04;14.87;;;5.07;;
19084;SDS011;9675;51.538;6.728;2024-02-21T04:47:32;8.77;;;3.40;;
19084;SDS011;9675;51.538;6.728;2024-02-21T04:49:59;11.10;;;4.00;;
19084;SDS011;9675;51.538;6.728;2024-02-21T04:52:26;10.50;;;4.53;;
19084;SDS011;9675;51.538;6.728;2024-02-21T04:54:53;15.10;;;4.27;;
19084;SDS011;9675;51.538;6.728;2024-02-21T04:57:21;13.20;;;4.70;;
19084;SDS011;9675;51.538;6.728;2024-02-21T04:59:49;8.03;;;3.67;;
19084;SDS011;9675;51.538;6.728;2024-02-21T05:02:16;11.90;;;4.07;;
19084;SDS011;9675;51.538;6.728;2024-02-21T05:04:44;11.47;;;4.03;;
19084;SDS011;9675;51.538;6.728;2024-02-21T05:07:11;11.83;;;4.13;;
19084;SDS011;9675;51.538;6.728;2024-02-21T05:09:38;8.13;;;3.73;;
19084;SDS011;9675;51.538;6.728;2024-02-21T05:12:05;12.97;;;4.53;;
19084;SDS011;9675;51.538;6.728;2024-02-21T05:14:33;7.37;;;3.70;;
19084;SDS011;9675;51.538;6.728;2024-02-21T05:17:01;12.80;;;3.93;;
19084;SDS011;9675;51.538;6.728;2024-02-21T05:19:28;10.60;;;3.67;;
19084;SDS011;9675;51.538;6.728;2024-02-21T05:21:55;8.50;;;3.53;;
19084;SDS011;9675;51.538;6.728;2024-02-21T05:24:22;9.80;;;4.00;;
19084;SDS011;9675;51.538;6.728;2024-02-21T05:26:49;9.20;;;3.43;;
19084;SDS011;9675;51.538;6.728;2024-02-21T05:29:17;11.90;;;4.57;;
19084;SDS011;9675;51.538;6.728;2024-02-21T05:31:54;11.97;;;3.67;;
19084;SDS011;9675;51.538;6.728;2024-02-21T05:34:24;10.57;;;3.93;;
19084;SDS011;9675;51.538;6.728;2024-02-21T05:36:52;9.43;;;3.70;;
19084;SDS011;9675;51.538;6.728;2024-02-21T05:39:21;13.17;;;4.60;;
19084;SDS011;9675;51.538;6.728;2024-02-21T05:41:48;13.37;;;3.60;;
19084;SDS011;9675;51.538;6.728;2024-02-21T05:44:16;15.33;;;4.37;;
19084;SDS011;9675;51.538;6.728;2024-02-21T05:46:45;10.03;;;4.17;;
19084;SDS011;9675;51.538;6.728;2024-02-21T05:49:12;8.43;;;3.53;;
19084;SDS011;9675;51.538;6.728;2024-02-21T05:51:41;11.37;;;4.67;;
19084;SDS011;9675;51.538;6.728;2024-02-21T05:54:08;16.00;;;5.97;;
19084;SDS011;9675;51.538;6.728;2024-02-21T05:56:35;12.37;;;5.00;;
19084;SDS011;9675;51.538;6.728;2024-02-21T05:59:02;13.40;;;5.90;;
19084;SDS011;9675;51.538;6.728;2024-02-21T06:01:29;20.07;;;4.60;;
19084;SDS011;9675;51.538;6.728;2024-02-21T06:03:56;22.90;;;9.13;;
19084;SDS011;9675;51.538;6.728;2024-02-21T06:06:23;13.57;;;4.77;;
19084;SDS011;9675;51.538;6.728;2024-02-21T06:08:52;11.07;;;4.90;;
19084;SDS011;9675;51.538;6.728;2024-02-21T06:11:19;9.60;;;4.50;;
19084;SDS011;9675;51.538;6.728;2024-02-21T06:13:46;18.07;;;5.60;;
19084;SDS011;9675;51.538;6.728;2024-02-21T06:16:13;13.37;;;5.57;;
19084;SDS011;9675;51.538;6.728;2024-02-21T06:18:40;14.87;;;4.97;;
19084;SDS011;9675;51.538;6.728;2024-02-21T06:21:07;16.83;;;5.30;;
19084;SDS011;9675;51.538;6.728;2024-02-21T06:23:36;13.73;;;4.43;;
19084;SDS011;9675;51.538;6.728;2024-02-21T06:26:04;12.50;;;3.73;;
19084;SDS011;9675;51.538;6.728;2024-02-21T06:28:31;11.27;;;4.60;;
19084;SDS011;9675;51.538;6.728;2024-02-21T06:30:58;9.30;;;3.70;;
19084;SDS011;9675;51.538;6.728;2024-02-21T06:33:25;9.80;;;4.07;;
19084;SDS011;9675;51.538;6.728;2024-02-21T06:35:53;13.30;;;4.60;;
19084;SDS011;9675;51.538;6.728;2024-02-21T06:38:20;10.77;;;4.53;;
19084;SDS011;9675;51.538;6.728;2024-02-21T06:40:47;12.37;;;4.27;;
19084;SDS011;9675;51.538;6.728;2024-02-21T06:43:19;8.60;;;4.20;;
19084;SDS011;9675;51.538;6.728;2024-02-21T06:45:47;8.33;;;3.80;;
19084;SDS011;9675;51.538;6.728;2024-02-21T06:48:16;14.83;;;4.47;;
19084;SDS011;9675;51.538;6.728;2024-02-21T06:50:44;8.00;;;3.90;;
19084;SDS011;9675;51.538;6.728;2024-02-21T06:53:11;6.70;;;3.23;;
19084;SDS011;9675;51.538;6.728;2024-02-21T06:55:38;11.40;;;4.33;;
19084;SDS011;9675;51.538;6.728;2024-02-21T06:58:06;14.30;;;4.83;;
19084;SDS011;9675;51.538;6.728;2024-02-21T07:00:38;8.20;;;3.87;;
19084;SDS011;9675;51.538;6.728;2024-02-21T07:03:05;10.17;;;3.83;;
19084;SDS011;9675;51.538;6.728;2024-02-21T07:05:32;13.23;;;5.40;;
19084;SDS011;9675;51.538;6.728;2024-02-21T07:08:00;7.57;;;3.27;;
19084;SDS011;9675;51.538;6.728;2024-02-21T07:10:28;9.10;;;4.03;;
19084;SDS011;9675;51.538;6.728;2024-02-21T07:12:55;9.17;;;4.07;;
19084;SDS011;9675;51.538;6.728;2024-02-21T07:15:22;12.17;;;4.00;;
19084;SDS011;9675;51.538;6.728;2024-02-21T07:17:53;9.10;;;3.87;;
19084;SDS011;9675;51.538;6.728;2024-02-21T07:20:20;12.23;;;4.40;;
19084;SDS011;9675;51.538;6.728;2024-02-21T07:22:47;11.57;;;4.23;;
19084;SDS011;9675;51.538;6.728;2024-02-21T07:25:14;11.47;;;4.20;;
19084;SDS011;9675;51.538;6.728;2024-02-21T07:27:42;13.87;;;4.97;;
19084;SDS011;9675;51.538;6.728;2024-02-21T07:30:11;9.80;;;3.77;;
19084;SDS011;9675;51.538;6.728;2024-02-21T07:32:38;9.63;;;3.90;;
19084;SDS011;9675;51.538;6.728;2024-02-21T07:35:07;9.70;;;3.97;;
19084;SDS011;9675;51.538;6.728;2024-02-21T07:37:35;13.13;;;4.70;;
19084;SDS011;9675;51.538;6.728;2024-02-21T07:40:04;16.37;;;4.47;;
19084;SDS011;9675;51.538;6.728;2024-02-21T07:42:33;9.77;;;3.80;;
19084;SDS011;9675;51.538;6.728;2024-02-21T07:45:00;7.50;;;2.77;;
19084;SDS011;9675;51.538;6.728;2024-02-21T07:47:28;10.50;;;4.37;;
19084;SDS011;9675;51.538;6.728;2024-02-21T07:49:55;7.83;;;3.57;;
19084;SDS011;9675;51.538;6.728;2024-02-21T07:52:23;7.67;;;3.40;;
19084;SDS011;9675;51.538;6.728;2024-02-21T07:54:50;12.83;;;4.63;;
19084;SDS011;9675;51.538;6.728;2024-02-21T07:57:17;10.40;;;3.63;;
19084;SDS011;9675;51.538;6.728;2024-02-21T07:59:45;12.57;;;4.43;;
19084;SDS011;9675;51.538;6.728;2024-02-21T08:02:13;11.27;;;4.07;;
19084;SDS011;9675;51.538;6.728;2024-02-21T08:04:40;9.03;;;2.53;;
19084;SDS011;9675;51.538;6.728;2024-02-21T08:07:07;11.20;;;4.83;;
19084;SDS011;9675;51.538;6.728;2024-02-21T08:09:36;9.67;;;3.93;;
19084;SDS011;9675;51.538;6.728;2024-02-21T08:12:06;9.77;;;3.97;;
19084;SDS011;9675;51.538;6.728;2024-02-21T08:14:33;9.97;;;3.97;;
19084;SDS011;9675;51.538;6.728;2024-02-21T08:17:00;12.27;;;4.50;;
19084;SDS011;9675;51.538;6.728;2024-02-21T08:19:28;11.00;;;3.60;;
19084;SDS011;9675;51.538;6.728;2024-02-21T08:21:56;19.33;;;3.90;;
19084;SDS011;9675;51.538;6.728;2024-02-21T08:24:23;15.53;;;4.37;;
19084;SDS011;9675;51.538;6.728;2024-02-21T08:26:51;11.63;;;4.10;;
19084;SDS011;9675;51.538;6.728;2024-02-21T08:29:18;15.37;;;3.47;;
19084;SDS011;9675;51.538;6.728;2024-02-21T08:31:45;7.97;;;2.37;;
19084;SDS011;9675;51.538;6.728;2024-02-21T08:34:12;6.93;;;3.10;;
19084;SDS011;9675;51.538;6.728;2024-02-21T08:36:40;6.30;;;2.70;;
19084;SDS011;9675;51.538;6.728;2024-02-21T08:39:07;6.93;;;2.63;;
19084;SDS011;9675;51.538;6.728;2024-02-21T08:41:34;8.57;;;3.10;;
19084;SDS011;9675;51.538;6.728;2024-02-21T08:44:03;6.83;;;2.40;;
19084;SDS011;9675;51.538;6.728;2024-02-21T08:46:30;10.07;;;3.27;;
19084;SDS011;9675;51.538;6.728;2024-02-21T08:48:57;9.00;;;3.10;;
19084;SDS011;9675;51.538;6.728;2024-02-21T08:51:24;11.87;;;2.77;;
19084;SDS011;9675;51.538;6.728;2024-02-21T08:53:51;8.67;;;2.80;;
19084;SDS011;9675;51.538;6.728;2024-02-21T08:56:18;21.37;;;4.20;;
19084;SDS011;9675;51.538;6.728;2024-02-21T08:58:46;11.93;;;3.80;;
19084;SDS011;9675;51.538;6.728;2024-02-21T09:01:14;8.10;;;3.17;;
19084;SDS011;9675;51.538;6.728;2024-02-21T09:03:41;14.20;;;4.33;;
19084;SDS011;9675;51.538;6.728;2024-02-21T09:06:10;15.07;;;4.83;;
19084;SDS011;9675;51.538;6.728;2024-02-21T09:08:41;18.70;;;3.77;;
19084;SDS011;9675;51.538;6.728;2024-02-21T09:11:08;15.10;;;4.43;;
19084;SDS011;9675;51.538;6.728;2024-02-21T09:13:35;9.40;;;4.00;;
19084;SDS011;9675;51.538;6.728;2024-02-21T09:16:03;10.50;;;3.57;;
19084;SDS011;9675;51.538;6.728;2024-02-21T09:18:32;11.27;;;3.40;;
19084;SDS011;9675;51.538;6.728;2024-02-21T09:20:59;6.70;;;3.20;;
19084;SDS011;9675;51.538;6.728;2024-02-21T09:23:27;14.30;;;3.30;;
19084;SDS011;9675;51.538;6.728;2024-02-21T09:25:54;6.03;;;2.93;;
19084;SDS011;9675;51.538;6.728;2024-02-21T09:28:21;14.97;;;4.27;;
19084;SDS011;9675;51.538;6.728;2024-02-21T09:30:48;9.07;;;3.10;;
19084;SDS011;9675;51.538;6.728;2024-02-21T09:33:15;5.70;;;2.27;;
19084;SDS011;9675;51.538;6.728;2024-02-21T09:35:44;11.80;;;2.83;;
19084;SDS011;9675;51.538;6.728;2024-02-21T09:38:11;6.83;;;3.27;;
19084;SDS011;9675;51.538;6.728;2024-02-21T09:40:38;10.93;;;3.27;;
19084;SDS011;9675;51.538;6.728;2024-02-21T09:43:07;10.73;;;3.43;;
19084;SDS011;9675;51.538;6.728;2024-02-21T09:45:34;9.57;;;2.43;;
19084;SDS011;9675;51.538;6.728;2024-02-21T09:48:06;9.90;;;3.70;;
19084;SDS011;9675;51.538;6.728;2024-02-21T09:50:51;11.13;;;3.33;;
19084;SDS011;9675;51.538;6.728;2024-02-21T09:53:21;7.40;;;3.30;;
19084;SDS011;9675;51.538;6.728;2024-02-21T09:55:50;5.97;;;2.63;;
19084;SDS011;9675;51.538;6.728;2024-02-21T09:58:19;5.50;;;2.40;;
19084;SDS011;9675;51.538;6.728;2024-02-21T10:00:47;3.53;;;2.03;;
19084;SDS011;9675;51.538;6.728;2024-02-21T10:03:14;10.70;;;2.80;;
19084;SDS011;9675;51.538;6.728;2024-02-21T10:05:46;5.97;;;2.10;;
19084;SDS011;9675;51.538;6.728;2024-02-21T10:08:17;8.87;;;3.10;;
19084;SDS011;9675;51.538;6.728;2024-02-21T10:10:46;9.40;;;2.53;;
19084;SDS011;9675;51.538;6.728;2024-02-21T10:13:23;11.30;;;3.43;;
19084;SDS011;9675;51.538;6.728;2024-02-21T10:16:02;6.37;;;2.00;;
19084;SDS011;9675;51.538;6.728;2024-02-21T10:18:31;4.87;;;2.50;;
19084;SDS011;9675;51.538;6.728;2024-02-21T10:21:02;7.10;;;2.57;;
19084;SDS011;9675;51.538;6.728;2024-02-21T10:23:41;9.87;;;2.30;;
19084;SDS011;9675;51.538;6.728;2024-02-21T10:26:10;7.30;;;2.40;;
19084;SDS011;9675;51.538;6.728;2024-02-21T10:28:38;8.37;;;2.50;;
19084;SDS011;9675;51.538;6.728;2024-02-21T10:31:07;4.77;;;2.03;;
19084;SDS011;9675;51.538;6.728;2024-02-21T10:33:35;10.47;;;2.90;;
19084;SDS011;9675;51.538;6.728;2024-02-21T10:36:06;8.80;;;2.10;;
19084;SDS011;9675;51.538;6.728;2024-02-21T10:38:35;5.73;;;2.43;;
19084;SDS011;9675;51.538;6.728;2024-02-21T10:41:05;8.97;;;2.03;;
19084;SDS011;9675;51.538;6.728;2024-02-21T10:43:35;9.43;;;3.17;;
19084;SDS011;9675;51.538;6.728;2024-02-21T10:46:06;7.90;;;2.80;;
19084;SDS011;9675;51.538;6.728;2024-02-21T10:48:38;7.70;;;2.90;;
19084;SDS011;9675;51.538;6.728;2024-02-21T10:51:15;4.97;;;1.77;;
19084;SDS011;9675;51.538;6.728;2024-02-21T10:53:44;8.83;;;2.20;;
19084;SDS011;9675;51.538;6.728;2024-02-21T10:56:24;6.83;;;1.50;;
19084;SDS011;9675;51.538;6.728;2024-02-21T10:58:56;11.13;;;2.30;;
19084;SDS011;9675;51.538;6.728;2024-02-21T11:01:27;13.00;;;3.47;;
19084;SDS011;9675;51.538;6.728;2024-02-21T11:03:57;12.07;;;2.63;;
19084;SDS011;9675;51.538;6.728;2024-02-21T11:06:28;6.93;;;2.60;;
19084;SDS011;9675;51.538;6.728;2024-02-21T11:09:00;8.20;;;2.37;;
19084;SDS011;9675;51.538;6.728;2024-02-21T11:11:31;7.83;;;2.33;;
19084;SDS011;9675;51.538;6.728;2024-02-21T11:14:03;7.97;;;2.17;;
19084;SDS011;9675;51.538;6.728;2024-02-21T11:16:36;11.33;;;2.20;;
19084;SDS011;9675;51.538;6.728;2024-02-21T11:19:05;7.47;;;1.67;;
19084;SDS011;9675;51.538;6.728;2024-02-21T11:21:34;7.40;;;2.60;;
19084;SDS011;9675;51.538;6.728;2024-02-21T11:24:02;11.23;;;2.23;;
19084;SDS011;9675;51.538;6.728;2024-02-21T11:26:32;6.80;;;2.07;;
19084;SDS011;9675;51.538;6.728;2024-02-21T11:28:59;4.60;;;2.00;;
19084;SDS011;9675;51.538;6.728;2024-02-21T11:31:37;7.10;;;2.47;;
19084;SDS011;9675;51.538;6.728;2024-02-21T11:34:08;10.80;;;2.97;;
19084;SDS011;9675;51.538;6.728;2024-02-21T11:36:36;10.70;;;2.40;;
19084;SDS011;9675;51.538;6.728;2024-02-21T11:39:13;8.93;;;2.57;;
19084;SDS011;9675;51.538;6.728;2024-02-21T11:41:48;4.53;;;2.43;;
19084;SDS011;9675;51.538;6.728;2024-02-21T11:44:30;6.43;;;2.30;;
19084;SDS011;9675;51.538;6.728;2024-02-21T11:46:58;8.43;;;2.43;;
19084;SDS011;9675;51.538;6.728;2024-02-21T11:49:25;9.10;;;2.33;;
19084;SDS011;9675;51.538;6.728;2024-02-21T11:51:57;8.13;;;2.07;;
19084;SDS011;9675;51.538;6.728;2024-02-21T11:54:26;6.57;;;2.20;;
19084;SDS011;9675;51.538;6.728;2024-02-21T11:56:54;6.63;;;2.10;;
19084;SDS011;9675;51.538;6.728;2024-02-21T11:59:21;5.23;;;2.53;;
19084;SDS011;9675;51.538;6.728;2024-02-21T12:01:49;7.13;;;2.60;;
19084;SDS011;9675;51.538;6.728;2024-02-21T12:04:17;7.40;;;2.53;;
19084;SDS011;9675;51.538;6.728;2024-02-21T12:06:44;7.03;;;2.23;;
19084;SDS011;9675;51.538;6.728;2024-02-21T12:09:13;9.97;;;2.67;;
19084;SDS011;9675;51.538;6.728;2024-02-21T12:11:41;11.47;;;3.10;;
19084;SDS011;9675;51.538;6.728;2024-02-21T12:14:11;4.27;;;2.00;;
19084;SDS011;9675;51.538;6.728;2024-02-21T12:16:43;6.03;;;2.03;;
19084;SDS011;9675;51.538;6.728;2024-02-21T12:19:12;3.50;;;2.00;;
19084;SDS011;9675;51.538;6.728;2024-02-21T12:21:42;7.07;;;2.50;;
19084;SDS011;9675;51.538;6.728;2024-02-21T12:24:13;5.20;;;2.33;;
19084;SDS011;9675;51.538;6.728;2024-02-21T12:26:41;8.43;;;2.50;;
19084;SDS011;9675;51.538;6.728;2024-02-21T12:29:08;11.83;;;3.13;;
19084;SDS011;9675;51.538;6.728;2024-02-21T12:31:37;4.13;;;1.73;;
19084;SDS011;9675;51.538;6.728;2024-02-21T12:34:05;6.87;;;2.27;;
19084;SDS011;9675;51.538;6.728;2024-02-21T12:36:35;5.47;;;2.50;;
19084;SDS011;9675;51.538;6.728;2024-02-21T12:39:06;5.50;;;2.13;;
19084;SDS011;9675;51.538;6.728;2024-02-21T12:41:34;7.03;;;2.97;;
19084;SDS011;9675;51.538;6.728;2024-02-21T12:44:03;6.73;;;2.37;;
19084;SDS011;9675;51.538;6.728;2024-02-21T12:46:33;6.67;;;2.40;;
19084;SDS011;9675;51.538;6.728;2024-02-21T12:49:00;13.10;;;3.10;;
19084;SDS011;9675;51.538;6.728;2024-02-21T12:51:27;7.87;;;2.23;;
19084;SDS011;9675;51.538;6.728;2024-02-21T12:53:55;10.80;;;2.63;;
19084;SDS011;9675;51.538;6.728;2024-02-21T12:56:22;5.90;;;2.30;;
19084;SDS011;9675;51.538;6.728;2024-02-21T12:58:51;6.23;;;2.20;;
19084;SDS011;9675;51.538;6.728;2024-02-21T13:01:18;4.73;;;1.77;;
19084;SDS011;9675;51.538;6.728;2024-02-21T13:03:47;6.53;;;2.63;;
19084;SDS011;9675;51.538;6.728;2024-02-21T13:06:14;8.37;;;1.90;;
19084;SDS011;9675;51.538;6.728;2024-02-21T13:08:41;10.73;;;2.93;;
19084;SDS011;9675;51.538;6.728;2024-02-21T13:11:09;6.27;;;1.80;;
19084;SDS011;9675;51.538;6.728;2024-02-21T13:13:38;6.40;;;2.20;;
19084;SDS011;9675;51.538;6.728;2024-02-21T13:16:05;6.50;;;2.43;;
19084;SDS011;9675;51.538;6.728;2024-02-21T13:18:34;6.60;;;1.90;;
19084;SDS011;9675;51.538;6.728;2024-02-21T13:21:04;7.53;;;2.20;;
19084;SDS011;9675;51.538;6.728;2024-02-21T13:23:31;6.67;;;1.90;;
19084;SDS011;9675;51.538;6.728;2024-02-21T13:25:59;9.70;;;2.20;;
19084;SDS011;9675;51.538;6.728;2024-02-21T13:28:26;5.30;;;1.80;;
19084;SDS011;9675;51.538;6.728;2024-02-21T13:30:53;4.37;;;2.23;;
19084;SDS011;9675;51.538;6.728;2024-02-21T13:33:20;10.93;;;3.50;;
19084;SDS011;9675;51.538;6.728;2024-02-21T13:35:47;9.27;;;2.13;;
19084;SDS011;9675;51.538;6.728;2024-02-21T13:38:15;11.20;;;3.03;;
19084;SDS011;9675;51.538;6.728;2024-02-21T13:40:43;5.03;;;2.07;;
19084;SDS011;9675;51.538;6.728;2024-02-21T13:43:11;10.77;;;3.57;;
19084;SDS011;9675;51.538;6.728;2024-02-21T13:45:38;13.13;;;3.47;;
19084;SDS011;9675;51.538;6.728;2024-02-21T13:48:07;9.33;;;2.20;;
19084;SDS011;9675;51.538;6.728;2024-02-21T13:50:37;7.77;;;2.97;;
19084;SDS011;9675;51.538;6.728;2024-02-21T13:53:08;12.77;;;2.57;;
19084;SDS011;9675;51.538;6.728;2024-02-21T13:55:37;14.17;;;2.70;;
19084;SDS011;9675;51.538;6.728;2024-02-21T13:58:05;14.10;;;2.30;;
19084;SDS011;9675;51.538;6.728;2024-02-21T14:00:33;8.13;;;2.87;;
19084;SDS011;9675;51.538;6.728;2024-02-21T14:03:01;7.07;;;2.63;;
19084;SDS011;9675;51.538;6.728;2024-02-21T14:05:28;6.43;;;1.77;;
19084;SDS011;9675;51.538;6.728;2024-02-21T14:07:55;7.70;;;2.17;;
19084;SDS011;9675;51.538;6.728;2024-02-21T14:10:22;6.30;;;1.83;;
19084;SDS011;9675;51.538;6.728;2024-02-21T14:12:51;10.20;;;2.07;;
19084;SDS011;9675;51.538;6.728;2024-02-21T14:15:18;11.10;;;2.50;;
19084;SDS011;9675;51.538;6.728;2024-02-21T14:17:45;6.23;;;2.10;;
19084;SDS011;9675;51.538;6.728;2024-02-21T14:20:12;7.37;;;2.10;;
19084;SDS011;9675;51.538;6.728;2024-02-21T14:22:40;7.47;;;2.60;;
19084;SDS011;9675;51.538;6.728;2024-02-21T14:25:07;7.67;;;1.90;;
19084;SDS011;9675;51.538;6.728;2024-02-21T14:27:35;12.67;;;2.30;;
19084;SDS011;9675;51.538;6.728;2024-02-21T14:30:04;4.77;;;1.80;;
19084;SDS011;9675;51.538;6.728;2024-02-21T14:32:35;13.00;;;2.30;;
19084;SDS011;9675;51.538;6.728;2024-02-21T14:35:02;7.23;;;2.00;;
19084;SDS011;9675;51.538;6.728;2024-02-21T14:37:31;5.87;;;2.30;;
19084;SDS011;9675;51.538;6.728;2024-02-21T14:39:58;13.97;;;2.20;;
19084;SDS011;9675;51.538;6.728;2024-02-21T14:42:26;7.20;;;2.33;;
19084;SDS011;9675;51.538;6.728;2024-02-21T14:44:53;8.17;;;2.50;;
19084;SDS011;9675;51.538;6.728;2024-02-21T14:47:29;7.47;;;2.00;;
19084;SDS011;9675;51.538;6.728;2024-02-21T14:49:57;8.83;;;2.30;;
19084;SDS011;9675;51.538;6.728;2024-02-21T14:52:24;3.63;;;1.67;;
19084;SDS011;9675;51.538;6.728;2024-02-21T14:54:52;4.23;;;1.90;;
19084;SDS011;9675;51.538;6.728;2024-02-21T14:57:19;4.87;;;1.47;;
19084;SDS011;9675;51.538;6.728;2024-02-21T14:59:46;7.10;;;1.63;;